Time;durP1;ratioP1;P1;durP2;ratioP2;P2;SDS_P1;SDS_P2;PMS_P1;PMS_P2;Temp;Humidity;BMP_temperature;BMP_pressure;BME280_temperature;BME280_humidity;BME280_pressure;Samples;Min_cycle;Max_cycle;Signal;HPM_P1;HPM_P2
2023/04/26 00:00:21;;;;;;;10.93;7.97;;;6.20;95.70;;;;;;5074344;28;20505;-55
2023/04/26 00:02:47;;;;;;;9.88;8.43;;;6.30;95.00;;;;;;5074818;28;20278;-57
2023/04/26 00:05:14;;;;;;;13.43;7.60;;;6.30;94.20;;;;;;5074771;28;20036;-56
2023/04/26 00:07:41;;;;;;;8.85;7.95;;;6.30;94.30;;;;;;5074686;28;20032;-57
2023/04/26 00:10:08;;;;;;;10.15;8.07;;;6.40;94.10;;;;;;5075053;28;20111;-56
2023/04/26 00:12:35;;;;;;;13.18;8.20;;;6.40;94.00;;;;;;5074886;28;20039;-59
2023/04/26 00:15:00;;;;;;;15.65;8.77;;;6.30;94.30;;;;;;5075001;28;20025;-55
2023/04/26 00:17:26;;;;;;;16.00;8.90;;;6.30;93.90;;;;;;5074713;28;20718;-56
2023/04/26 00:19:52;;;;;;;10.77;8.80;;;6.30;94.40;;;;;;5075015;28;20492;-56
2023/04/26 00:22:17;;;;;;;14.38;9.43;;;6.30;93.90;;;;;;5074625;28;20040;-55
2023/04/26 00:24:43;;;;;;;9.63;7.47;;;6.30;94.30;;;;;;5074697;28;20032;-56
2023/04/26 00:27:09;;;;;;;13.63;7.63;;;6.30;94.30;;;;;;5074439;28;20633;-55
2023/04/26 00:29:36;;;;;;;10.98;7.18;;;6.40;94.00;;;;;;5074320;28;20063;-58
2023/04/26 00:32:02;;;;;;;9.48;7.82;;;6.40;93.00;;;;;;5074255;28;20017;-57
2023/04/26 00:34:35;;;;;;;8.38;6.93;;;6.40;92.00;;;;;;5074167;28;20028;-57
2023/04/26 00:37:02;;;;;;;8.68;6.95;;;6.40;93.20;;;;;;5073218;28;20482;-59
2023/04/26 00:39:28;;;;;;;8.45;7.00;;;6.50;92.70;;;;;;5074493;28;20039;-55
2023/04/26 00:41:54;;;;;;;8.38;7.53;;;6.50;91.80;;;;;;5074348;28;20025;-56
2023/04/26 00:44:20;;;;;;;8.38;6.35;;;6.40;91.20;;;;;;5074270;28;20031;-58
2023/04/26 00:46:45;;;;;;;10.48;7.15;;;6.50;91.70;;;;;;5074346;28;20380;-58
2023/04/26 00:49:15;;;;;;;10.30;6.90;;;6.50;90.00;;;;;;5073005;28;20032;-58
2023/04/26 00:51:42;;;;;;;7.55;6.75;;;6.50;90.60;;;;;;5074285;28;20009;-58
2023/04/26 00:54:08;;;;;;;8.30;6.05;;;6.60;88.80;;;;;;5074317;28;20463;-59
2023/04/26 00:56:37;;;;;;;9.88;6.95;;;6.60;88.90;;;;;;5074156;28;20117;-57
2023/04/26 00:59:02;;;;;;;6.53;5.75;;;6.60;90.10;;;;;;5074022;28;20036;-56
2023/04/26 01:01:28;;;;;;;9.48;6.20;;;6.60;90.50;;;;;;5072627;28;20025;-58
2023/04/26 01:03:54;;;;;;;8.20;7.10;;;6.70;90.70;;;;;;5072654;28;20115;-58
2023/04/26 01:06:19;;;;;;;8.65;6.68;;;6.50;89.40;;;;;;5073777;28;20118;-55
2023/04/26 01:08:46;;;;;;;10.52;6.97;;;6.50;89.50;;;;;;5072890;28;20016;-56
2023/04/26 01:11:12;;;;;;;10.77;7.28;;;6.60;90.30;;;;;;5074035;28;20017;-59
2023/04/26 01:13:39;;;;;;;9.13;7.20;;;6.60;90.80;;;;;;5073931;28;20045;-59
2023/04/26 01:16:07;;;;;;;9.85;7.13;;;6.40;90.70;;;;;;5072491;28;20021;-57
2023/04/26 01:18:33;;;;;;;10.70;7.95;;;6.50;91.00;;;;;;5073527;28;21390;-58
2023/04/26 01:20:59;;;;;;;9.00;8.10;;;6.30;91.00;;;;;;5073818;28;20094;-59
2023/04/26 01:23:24;;;;;;;8.77;7.00;;;6.30;90.20;;;;;;5073767;28;20028;-58
2023/04/26 01:25:50;;;;;;;11.25;7.63;;;6.20;81.50;;;;;;5073607;28;20028;-53
2023/04/26 01:28:16;;;;;;;10.50;6.60;;;6.10;67.80;;;;;;5073386;28;20028;-57
2023/04/26 01:30:42;;;;;;;9.95;6.70;;;6.00;64.90;;;;;;5073494;28;20017;-55
2023/04/26 01:33:08;;;;;;;8.95;7.32;;;5.90;59.30;;;;;;5073537;28;20021;-56
2023/04/26 01:35:33;;;;;;;8.45;6.60;;;5.90;63.60;;;;;;5073366;28;20024;-57
2023/04/26 01:37:59;;;;;;;18.42;7.13;;;5.90;63.70;;;;;;5073404;28;20031;-58
2023/04/26 01:40:25;;;;;;;8.70;6.35;;;5.80;61.40;;;;;;5071991;28;20025;-57
2023/04/26 01:43:28;;;;;;;8.40;7.05;;;5.90;64.40;;;;;;5073390;28;20025;-57
2023/04/26 01:45:54;;;;;;;9.05;6.28;;;5.90;62.90;;;;;;5073239;28;20093;-56
2023/04/26 01:48:19;;;;;;;9.57;6.38;;;5.90;63.40;;;;;;5073076;28;20025;-56
2023/04/26 01:50:45;;;;;;;10.15;7.22;;;5.80;71.10;;;;;;5073076;28;20020;-57
2023/04/26 01:53:11;;;;;;;9.20;7.68;;;5.80;71.80;;;;;;5073154;28;20020;-57
2023/04/26 01:55:36;;;;;;;11.48;7.55;;;5.80;75.70;;;;;;5073049;28;20095;-57
2023/04/26 01:58:02;;;;;;;13.63;7.75;;;5.70;75.90;;;;;;5072996;28;20020;-59
2023/04/26 02:00:28;;;;;;;9.50;7.75;;;5.80;80.30;;;;;;5068249;28;20102;-56
2023/04/26 02:02:57;;;;;;;17.88;8.25;;;5.80;81.00;;;;;;5072837;28;20040;-59
2023/04/26 02:05:23;;;;;;;13.35;7.28;;;5.70;77.40;;;;;;5072977;28;20017;-58
2023/04/26 02:07:50;;;;;;;11.35;7.78;;;5.60;82.60;;;;;;5073037;28;20020;-56
2023/04/26 02:10:15;;;;;;;9.43;6.57;;;5.60;78.20;;;;;;5072718;28;20017;-56
2023/04/26 02:12:41;;;;;;;16.52;6.80;;;5.60;80.50;;;;;;5072621;28;20082;-58
2023/04/26 02:15:07;;;;;;;10.52;6.63;;;5.70;80.10;;;;;;5072695;28;20013;-59
2023/04/26 02:17:33;;;;;;;9.60;7.15;;;5.70;75.00;;;;;;5072762;28;20103;-58
2023/04/26 02:19:58;;;;;;;10.18;6.50;;;5.70;76.10;;;;;;5072404;28;20348;-59
2023/04/26 02:22:25;;;;;;;10.57;8.02;;;5.70;78.30;;;;;;5072433;28;20031;-57
2023/04/26 02:24:51;;;;;;;13.10;7.72;;;5.60;79.80;;;;;;5071176;28;20490;-59
2023/04/26 02:27:18;;;;;;;11.23;7.45;;;5.60;84.20;;;;;;5071967;28;20033;-58
2023/04/26 02:29:43;;;;;;;10.05;6.93;;;5.70;83.60;;;;;;5072472;28;20036;-59
2023/04/26 02:32:09;;;;;;;15.18;7.25;;;5.70;84.70;;;;;;5072456;28;20050;-59
2023/04/26 02:34:35;;;;;;;11.10;7.15;;;5.60;82.80;;;;;;5072160;28;20329;-58
2023/04/26 02:37:01;;;;;;;10.75;7.70;;;5.60;84.50;;;;;;5072349;28;20035;-59
2023/04/26 02:39:26;;;;;;;11.35;7.05;;;5.70;83.60;;;;;;5072134;28;20048;-55
2023/04/26 02:41:52;;;;;;;8.95;7.55;;;5.70;85.30;;;;;;5072038;28;20032;-58
2023/04/26 02:44:18;;;;;;;9.18;7.13;;;5.80;84.50;;;;;;5072318;28;20028;-58
2023/04/26 02:46:43;;;;;;;11.40;7.35;;;5.70;78.70;;;;;;5072068;28;20034;-58
2023/04/26 02:49:09;;;;;;;11.27;8.02;;;5.60;82.30;;;;;;5072096;28;20027;-59
2023/04/26 02:51:35;;;;;;;9.35;7.35;;;5.70;86.90;;;;;;5070634;28;20020;-57
2023/04/26 02:54:01;;;;;;;12.30;7.45;;;5.60;83.00;;;;;;5072059;28;20371;-59
2023/04/26 02:56:27;;;;;;;9.15;7.03;;;5.60;87.80;;;;;;5071666;28;20107;-57
2023/04/26 02:58:54;;;;;;;8.20;6.95;;;5.50;88.40;;;;;;5071763;28;20143;-58
2023/04/26 03:01:20;;;;;;;8.45;7.25;;;5.50;90.40;;;;;;5071792;28;20032;-58
2023/04/26 03:03:46;;;;;;;13.82;7.15;;;5.50;90.00;;;;;;5071947;28;20017;-59
2023/04/26 03:06:12;;;;;;;12.23;6.53;;;5.40;90.40;;;;;;5071762;28;20518;-58
2023/04/26 03:08:56;;;;;;;14.07;7.03;;;5.40;90.70;;;;;;5071596;28;20044;-58
2023/04/26 03:11:21;;;;;;;10.27;8.68;;;5.40;89.80;;;;;;5071731;28;20403;-59
2023/04/26 03:13:47;;;;;;;14.70;7.60;;;5.30;90.60;;;;;;5071751;28;20036;-55
2023/04/26 03:16:12;;;;;;;11.55;7.30;;;5.20;90.50;;;;;;5071569;28;20021;-59
2023/04/26 03:18:38;;;;;;;7.90;6.40;;;5.20;91.20;;;;;;5071543;28;20032;-59
2023/04/26 03:21:04;;;;;;;11.15;7.40;;;5.10;91.20;;;;;;5071695;28;20036;-59
2023/04/26 03:23:29;;;;;;;11.05;8.00;;;5.00;91.20;;;;;;5071512;28;20043;-58
2023/04/26 03:25:55;;;;;;;11.02;7.63;;;5.00;91.70;;;;;;5071670;28;20101;-57
2023/04/26 03:28:21;;;;;;;10.02;6.88;;;5.00;91.90;;;;;;5070065;28;20032;-59
2023/04/26 03:30:48;;;;;;;12.25;7.70;;;5.00;92.20;;;;;;5071743;28;20029;-57
2023/04/26 03:33:15;;;;;;;12.93;7.63;;;4.90;92.10;;;;;;5070769;28;20388;-58
2023/04/26 03:35:42;;;;;;;10.93;8.13;;;4.90;92.80;;;;;;5071486;28;20039;-59
2023/04/26 03:38:07;;;;;;;12.95;7.40;;;4.90;93.80;;;;;;5071436;28;20070;-59
2023/04/26 03:40:33;;;;;;;9.18;6.82;;;4.90;94.80;;;;;;5071370;28;20028;-58
2023/04/26 03:42:59;;;;;;;8.70;7.07;;;5.00;95.50;;;;;;5071414;28;20021;-59
2023/04/26 03:45:25;;;;;;;9.48;6.93;;;5.00;93.80;;;;;;5071293;28;20565;-59
2023/04/26 03:47:51;;;;;;;10.20;7.03;;;5.10;92.90;;;;;;5070116;28;20039;-59
2023/04/26 03:50:17;;;;;;;11.02;6.43;;;5.10;94.10;;;;;;5071375;28;20020;-58
2023/04/26 03:52:43;;;;;;;12.68;8.40;;;5.10;93.70;;;;;;5070028;28;20063;-59
2023/04/26 03:55:10;;;;;;;11.32;7.57;;;5.20;94.20;;;;;;5071270;28;20079;-59
2023/04/26 03:57:36;;;;;;;11.00;7.53;;;5.20;93.40;;;;;;5071135;28;20090;-57
2023/04/26 04:00:08;;;;;;;10.10;7.47;;;5.20;94.80;;;;;;5071281;28;20045;-59
2023/04/26 04:02:34;;;;;;;10.15;8.07;;;5.20;95.00;;;;;;5071175;28;20049;-59
2023/04/26 04:05:00;;;;;;;9.75;6.95;;;5.20;95.00;;;;;;5071111;28;20092;-59
2023/04/26 04:07:25;;;;;;;10.50;7.88;;;5.10;94.40;;;;;;5071020;28;20052;-59
2023/04/26 04:09:51;;;;;;;9.82;7.22;;;5.20;94.80;;;;;;5071128;28;20376;-57
2023/04/26 04:12:16;;;;;;;8.93;7.40;;;5.20;95.10;;;;;;5071102;28;20381;-57
2023/04/26 04:14:42;;;;;;;10.82;7.93;;;5.20;94.40;;;;;;5070888;28;20029;-59
2023/04/26 04:17:08;;;;;;;12.63;7.88;;;5.30;94.40;;;;;;5070227;28;20040;-57
2023/04/26 04:19:33;;;;;;;14.30;8.13;;;5.40;93.70;;;;;;5070083;28;20020;-59
2023/04/26 04:21:59;;;;;;;10.73;6.90;;;5.30;90.90;;;;;;5070740;28;20029;-58
2023/04/26 04:24:25;;;;;;;11.77;8.05;;;5.40;91.20;;;;;;5071002;28;20031;-59
2023/04/26 04:26:51;;;;;;;13.77;8.18;;;5.40;92.20;;;;;;5070827;28;20456;-59
2023/04/26 04:29:16;;;;;;;10.25;7.35;;;5.40;91.70;;;;;;5071122;28;20025;-59
2023/04/26 04:31:42;;;;;;;12.23;7.53;;;5.40;92.10;;;;;;5070987;28;20028;-56
2023/04/26 04:34:08;;;;;;;16.85;8.40;;;5.50;90.90;;;;;;5070961;28;20024;-59
2023/04/26 04:36:34;;;;;;;11.55;9.20;;;5.50;91.00;;;;;;5070528;28;20027;-57
2023/04/26 04:39:00;;;;;;;10.68;7.82;;;5.50;90.50;;;;;;5070153;28;20402;-59
2023/04/26 04:41:26;;;;;;;11.13;8.23;;;5.50;91.60;;;;;;5070190;28;20028;-58
2023/04/26 04:43:52;;;;;;;9.93;7.38;;;5.60;91.40;;;;;;5072109;28;20012;-57
2023/04/26 04:46:18;;;;;;;13.32;8.25;;;5.60;91.20;;;;;;5074178;28;20019;-59
2023/04/26 04:48:43;;;;;;;15.90;8.13;;;5.60;92.50;;;;;;5074215;28;20456;-58
2023/04/26 04:51:09;;;;;;;11.35;7.88;;;5.60;91.40;;;;;;5074330;28;20029;-59
2023/04/26 04:53:35;;;;;;;14.02;8.32;;;5.60;91.40;;;;;;5073965;28;20020;-59
2023/04/26 04:56:00;;;;;;;11.25;8.02;;;5.70;91.60;;;;;;5072779;28;20115;-58
2023/04/26 04:58:26;;;;;;;10.82;8.00;;;5.70;91.00;;;;;;5074030;28;20024;-56
2023/04/26 05:00:53;;;;;;;10.90;7.68;;;5.70;90.40;;;;;;5074159;28;20048;-58
2023/04/26 05:03:19;;;;;;;11.00;7.13;;;5.70;88.40;;;;;;5073173;28;20070;-57
2023/04/26 05:05:44;;;;;;;11.23;8.00;;;5.70;89.30;;;;;;5072682;28;20028;-59
2023/04/26 05:08:10;;;;;;;19.77;13.38;;;5.70;89.60;;;;;;5073684;28;20112;-57
2023/04/26 05:10:36;;;;;;;8.80;7.50;;;5.70;89.90;;;;;;5073664;28;20020;-59
2023/04/26 05:13:02;;;;;;;17.33;13.82;;;5.80;89.10;;;;;;5073452;28;20659;-59
2023/04/26 05:15:28;;;;;;;11.70;8.68;;;5.80;83.30;;;;;;5085801;28;20020;-57
2023/04/26 05:17:54;;;;;;;11.88;7.85;;;5.80;88.40;;;;;;5093943;28;20463;-59
2023/04/26 05:20:20;;;;;;;13.60;9.10;;;5.80;84.20;;;;;;5091716;28;20066;-58
2023/04/26 05:22:46;;;;;;;13.35;9.38;;;5.80;87.60;;;;;;5073557;28;20020;-59
2023/04/26 05:25:13;;;;;;;12.18;9.25;;;5.80;89.20;;;;;;5072450;28;20032;-59
2023/04/26 05:27:39;;;;;;;10.02;8.18;;;5.90;86.40;;;;;;5072127;28;20029;-59
2023/04/26 05:30:05;;;;;;;16.73;8.98;;;5.90;89.00;;;;;;5072187;28;20536;-58
2023/04/26 05:32:31;;;;;;;13.48;8.98;;;5.90;88.80;;;;;;5071929;28;20493;-59
2023/04/26 05:34:57;;;;;;;13.57;9.50;;;6.00;86.00;;;;;;5071467;28;20027;-57
2023/04/26 05:37:23;;;;;;;12.90;9.55;;;5.90;84.80;;;;;;5071943;28;20059;-56
2023/04/26 05:39:49;;;;;;;13.25;10.15;;;5.90;84.70;;;;;;5072143;28;20027;-56
2023/04/26 05:42:15;;;;;;;16.35;10.13;;;5.90;90.30;;;;;;5071672;28;20017;-59
2023/04/26 05:44:41;;;;;;;14.55;10.25;;;6.00;88.80;;;;;;5071941;28;20071;-57
2023/04/26 05:47:07;;;;;;;15.02;10.93;;;6.00;90.90;;;;;;5072975;28;20526;-57
2023/04/26 05:49:33;;;;;;;15.68;10.98;;;6.00;88.30;;;;;;5071235;28;20029;-59
2023/04/26 05:52:02;;;;;;;18.75;10.43;;;6.20;91.10;;;;;;5073054;28;20016;-59
2023/04/26 05:54:28;;;;;;;11.07;9.55;;;6.40;90.60;;;;;;5071896;28;20012;-59
2023/04/26 05:56:54;;;;;;;16.00;10.48;;;6.60;79.20;;;;;;5072698;28;20016;-59
2023/04/26 05:59:20;;;;;;;16.92;10.25;;;6.70;80.30;;;;;;5072495;28;20045;-58
2023/04/26 06:01:45;;;;;;;15.25;10.75;;;6.80;69.90;;;;;;5072869;28;20484;-59
2023/04/26 06:04:11;;;;;;;13.65;9.77;;;6.90;71.20;;;;;;5072210;28;20027;-59
2023/04/26 06:06:36;;;;;;;12.82;9.70;;;6.90;71.70;;;;;;5072337;28;20016;-57
2023/04/26 06:09:03;;;;;;;14.65;10.35;;;6.90;72.30;;;;;;5072320;28;20049;-57
2023/04/26 06:11:29;;;;;;;14.30;9.82;;;6.80;71.80;;;;;;5071461;28;20035;-57
2023/04/26 06:13:55;;;;;;;11.18;9.65;;;7.00;77.00;;;;;;5072252;28;20052;-62
2023/04/26 06:16:21;;;;;;;16.40;11.13;;;6.90;69.00;;;;;;5072313;28;20055;-59
2023/04/26 06:18:47;;;;;;;12.38;10.02;;;7.10;77.40;;;;;;5071119;28;20024;-55
2023/04/26 06:21:13;;;;;;;13.13;9.95;;;7.10;75.20;;;;;;5071940;28;20021;-56
2023/04/26 06:23:38;;;;;;;16.20;10.73;;;7.10;71.70;;;;;;5069979;28;20491;-58
2023/04/26 06:26:04;;;;;;;23.67;12.55;;;7.10;64.60;;;;;;5071046;28;20063;-56
2023/04/26 06:28:30;;;;;;;13.80;10.10;;;7.10;79.00;;;;;;5071528;28;20020;-56
2023/04/26 06:30:56;;;;;;;13.05;10.70;;;7.20;70.30;;;;;;5072006;28;20048;-57
2023/04/26 06:33:21;;;;;;;17.70;11.95;;;7.20;71.30;;;;;;5071946;28;20012;-57
2023/04/26 06:35:47;;;;;;;14.57;10.85;;;7.10;66.80;;;;;;5070705;28;20040;-57
2023/04/26 06:38:12;;;;;;;16.05;11.15;;;7.00;67.20;;;;;;5072053;28;20031;-57
2023/04/26 06:40:38;;;;;;;13.70;10.45;;;7.00;73.90;;;;;;5071638;28;20074;-58
2023/04/26 06:43:04;;;;;;;14.45;10.80;;;6.90;75.40;;;;;;5071988;28;20048;-57
2023/04/26 06:45:30;;;;;;;15.77;11.73;;;6.90;70.70;;;;;;5071725;28;20386;-55
2023/04/26 06:47:56;;;;;;;19.70;13.20;;;6.80;68.90;;;;;;5071858;28;20020;-55
2023/04/26 06:50:22;;;;;;;13.27;10.02;;;6.70;78.60;;;;;;5071518;28;20031;-57
2023/04/26 06:52:47;;;;;;;15.48;11.93;;;6.70;74.90;;;;;;5071948;28;20021;-57
2023/04/26 06:55:13;;;;;;;14.45;10.63;;;6.80;79.10;;;;;;5071592;28;20021;-57
2023/04/26 06:57:40;;;;;;;14.43;9.93;;;6.80;67.80;;;;;;5071108;28;20387;-58
2023/04/26 07:00:08;;;;;;;12.32;9.68;;;6.90;62.30;;;;;;5071429;28;20048;-54
2023/04/26 07:02:34;;;;;;;16.20;10.75;;;6.90;55.70;;;;;;5070754;28;20071;-58
2023/04/26 07:04:59;;;;;;;13.40;10.43;;;7.00;74.30;;;;;;5071909;28;20060;-57
2023/04/26 07:07:26;;;;;;;11.88;8.90;;;7.10;65.50;;;;;;5070608;28;20032;-53
2023/04/26 07:09:52;;;;;;;12.23;9.80;;;7.30;50.60;;;;;;5071619;28;20017;-58
2023/04/26 07:12:17;;;;;;;14.95;9.18;;;7.50;46.80;;;;;;5071533;28;20039;-57
2023/04/26 07:14:43;;;;;;;12.73;9.57;;;7.60;37.20;;;;;;5070828;28;20028;-58
2023/04/26 07:17:09;;;;;;;42.63;22.77;;;7.60;41.00;;;;;;5071364;28;20028;-57
2023/04/26 07:19:35;;;;;;;12.82;9.30;;;7.60;37.80;;;;;;5071356;28;20483;-57
2023/04/26 07:22:01;;;;;;;16.38;9.35;;;7.90;45.00;;;;;;5082872;28;20028;-55
2023/04/26 07:24:27;;;;;;;9.73;8.70;;;8.10;12.00;;;;;;5091467;28;20024;-57
2023/04/26 07:26:52;;;;;;;15.88;11.00;;;8.10;16.50;;;;;;5091135;28;20028;-56
2023/04/26 07:29:18;;;;;;;14.15;9.60;;;8.20;4.90;;;;;;5091324;28;20470;-55
2023/04/26 07:31:45;;;;;;;13.93;10.35;;;8.50;1.80;;;;;;5085086;28;20021;-56
2023/04/26 07:34:10;;;;;;;14.77;10.05;;;8.70;23.90;;;;;;5070926;28;20035;-57
2023/04/26 07:36:36;;;;;;;12.50;9.98;;;8.60;1.00;;;;;;5077842;28;20091;-57
2023/04/26 07:39:03;;;;;;;14.45;11.25;;;8.60;1.00;;;;;;5090951;28;20082;-54
2023/04/26 07:41:30;;;;;;;13.40;11.15;;;8.50;22.10;;;;;;5090453;28;20013;-57
2023/04/26 07:43:55;;;;;;;14.52;10.98;;;8.30;10.70;;;;;;5090682;28;20442;-58
2023/04/26 07:46:21;;;;;;;13.50;10.52;;;8.10;11.20;;;;;;5090517;28;20051;-57
2023/04/26 07:48:46;;;;;;;20.65;11.80;;;8.00;12.00;;;;;;5083562;28;20052;-58
2023/04/26 07:51:12;;;;;;;20.15;11.95;;;8.00;28.10;;;;;;5071034;28;20569;-57
2023/04/26 07:53:39;;;;;;;16.20;11.25;;;7.90;17.70;;;;;;5071238;28;20150;-57
2023/04/26 07:56:09;;;;;;;14.02;11.02;;;7.90;6.20;;;;;;5071435;28;20029;-58
2023/04/26 07:58:36;;;;;;;17.67;10.25;;;7.90;25.70;;;;;;5070859;28;20032;-55
2023/04/26 08:01:05;;;;;;;15.05;11.82;;;7.90;16.00;;;;;;5070823;28;20127;-57
2023/04/26 08:03:31;;;;;;;18.95;13.13;;;7.80;32.70;;;;;;5070740;28;20082;-59
2023/04/26 08:05:57;;;;;;;18.10;13.75;;;7.70;34.60;;;;;;5070031;28;20028;-58
2023/04/26 08:08:25;;;;;;;22.05;14.10;;;7.90;33.40;;;;;;5070271;28;20039;-56
2023/04/26 08:10:52;;;;;;;17.77;12.63;;;8.10;1.00;;;;;;5071101;28;20411;-58
2023/04/26 08:13:17;;;;;;;19.13;12.40;;;8.00;21.50;;;;;;5070563;28;20024;-59
2023/04/26 08:15:43;;;;;;;24.63;14.68;;;8.20;15.00;;;;;;5070833;28;20052;-58
2023/04/26 08:18:09;;;;;;;15.55;10.15;;;8.10;12.60;;;;;;5089662;28;20077;-59
2023/04/26 08:20:35;;;;;;;15.55;10.27;;;8.30;27.70;;;;;;5084180;28;20040;-57
2023/04/26 08:23:00;;;;;;;14.07;10.88;;;8.50;1.00;;;;;;5073751;28;20089;-58
2023/04/26 08:25:26;;;;;;;25.50;15.02;;;8.50;1.00;;;;;;5074402;28;20052;-57
2023/04/26 08:27:52;;;;;;;23.85;10.73;;;8.30;1.00;;;;;;5074194;28;20025;-57
2023/04/26 08:30:18;;;;;;;18.70;9.52;;;8.40;1.00;;;;;;5074163;28;20116;-58
2023/04/26 08:32:45;;;;;;;19.02;12.80;;;8.10;1.00;;;;;;5074118;28;20420;-57
2023/04/26 08:35:11;;;;;;;17.17;10.07;;;7.70;1.00;;;;;;5074365;28;20054;-56
2023/04/26 08:37:36;;;;;;;18.80;11.60;;;7.80;1.00;;;;;;5074250;28;20028;-55
2023/04/26 08:40:09;;;;;;;24.70;15.35;;;7.60;1.00;;;;;;5073593;28;20032;-58
2023/04/26 08:42:42;;;;;;;16.00;10.77;;;7.50;28.20;;;;;;5073973;28;20086;-57
2023/04/26 08:45:10;;;;;;;19.60;9.52;;;7.60;1.00;;;;;;5072635;28;20445;-58
2023/04/26 08:47:50;;;;;;;24.70;9.18;;;7.90;1.00;;;;;;5074259;28;20090;-58
2023/04/26 08:50:20;;;;;;;17.98;8.82;;;8.30;1.00;;;;;;5073595;28;20020;-57
2023/04/26 08:52:48;;;;;;;19.38;9.48;;;8.30;1.00;;;;;;5073686;28;20024;-58
2023/04/26 08:55:15;;;;;;;13.02;8.65;;;8.40;1.00;;;;;;5068076;28;20020;-58
2023/04/26 08:57:44;;;;;;;15.90;8.15;;;8.60;1.00;;;;;;5062362;28;20036;-58
2023/04/26 09:00:14;;;;;;;17.10;10.88;;;8.40;1.00;;;;;;5062167;28;20605;-58
2023/04/26 09:02:51;;;;;;;14.18;6.47;;;8.50;1.00;;;;;;5065494;28;20137;-57
2023/04/26 09:05:22;;;;;;;13.38;7.50;;;9.20;99.90;;;;;;5073401;28;20051;-57
2023/04/26 09:07:49;;;;;;;12.35;8.68;;;9.40;1.00;;;;;;5073506;28;20373;-58
2023/04/26 09:10:19;;;;;;;12.45;5.68;;;9.20;99.90;;;;;;5073693;28;20028;-58
2023/04/26 09:12:45;;;;;;;11.60;7.63;;;9.50;99.90;;;;;;5072005;28;20031;-57
2023/04/26 09:15:13;;;;;;;12.32;8.02;;;9.30;99.90;;;;;;5073330;28;20012;-58
2023/04/26 09:17:40;;;;;;;12.27;7.05;;;9.30;1.00;;;;;;5084036;28;20024;-57
2023/04/26 09:20:24;;;;;;;15.02;8.90;;;9.50;99.90;;;;;;5087310;28;20033;-58
2023/04/26 09:22:52;;;;;;;15.23;7.63;;;9.50;1.00;;;;;;5073609;28;20031;-58
2023/04/26 09:25:28;;;;;;;12.82;8.52;;;9.50;97.50;;;;;;5073209;28;20028;-56
2023/04/26 09:27:54;;;;;;;16.58;9.98;;;9.50;99.90;;;;;;5073211;28;20031;-56
2023/04/26 09:30:21;;;;;;;10.35;8.27;;;9.20;99.90;;;;;;5071286;28;20024;-51
2023/04/26 09:32:56;;;;;;;15.10;8.82;;;9.50;99.90;;;;;;5073380;28;20337;-53
2023/04/26 09:35:30;;;;;;;11.95;9.38;;;9.60;1.00;;;;;;5072806;28;20430;-58
2023/04/26 09:38:07;;;;;;;15.35;8.95;;;9.30;99.90;;;;;;5073366;28;20039;-56
2023/04/26 09:40:33;;;;;;;15.55;8.75;;;8.70;1.00;;;;;;5072847;28;20088;-58
2023/04/26 09:43:19;;;;;;;12.05;8.38;;;8.80;1.00;;;;;;5072949;28;20025;-58
2023/04/26 09:45:46;;;;;;;13.85;8.23;;;8.80;79.00;;;;;;5072930;28;20025;-58
2023/04/26 09:48:33;;;;;;;13.48;8.05;;;9.10;92.50;;;;;;5072622;28;20100;-58
2023/04/26 09:51:01;;;;;;;21.55;12.98;;;9.00;99.90;;;;;;5072886;28;20098;-58
2023/04/26 09:53:41;;;;;;;23.08;12.65;;;8.90;99.90;;;;;;5073013;28;20499;-58
2023/04/26 09:56:17;;;;;;;23.08;10.80;;;8.90;99.90;;;;;;5072830;28;20032;-59
2023/04/26 09:58:43;;;;;;;30.02;16.27;;;9.00;99.90;;;;;;5072713;28;20025;-59
2023/04/26 10:01:10;;;;;;;15.77;8.65;;;8.90;1.00;;;;;;5072650;28;20040;-57
2023/04/26 10:03:36;;;;;;;18.33;11.45;;;8.90;99.90;;;;;;5072257;28;20056;-58
2023/04/26 10:06:06;;;;;;;25.23;12.77;;;8.70;99.90;;;;;;5072600;28;20119;-59
2023/04/26 10:08:32;;;;;;;34.78;17.27;;;8.60;99.90;;;;;;5071060;28;20028;-58
2023/04/26 10:11:00;;;;;;;242.93;79.40;;;8.80;1.00;;;;;;5072497;28;20024;-56
2023/04/26 10:13:27;;;;;;;33.90;19.58;;;8.90;1.00;;;;;;5071024;28;20124;-60
2023/04/26 10:15:55;;;;;;;17.40;9.13;;;9.30;99.90;;;;;;5070903;28;20096;-59
2023/04/26 10:18:21;;;;;;;12.02;8.05;;;9.50;99.90;;;;;;5072562;28;20119;-59
2023/04/26 10:20:51;;;;;;;11.35;7.93;;;10.10;1.00;;;;;;5071854;28;20100;-59
2023/04/26 10:23:26;;;;;;;14.18;6.88;;;10.90;99.90;;;;;;5084257;28;20024;-59
2023/04/26 10:25:53;;;;;;;11.98;7.05;;;11.30;99.90;;;;;;5092290;28;20082;-57
2023/04/26 10:28:38;;;;;;;8.50;6.30;;;11.50;99.90;;;;;;5092155;28;20047;-58
2023/04/26 10:31:06;;;;;;;12.38;6.97;;;10.90;99.90;;;;;;5092347;28;20394;-58
2023/04/26 10:33:32;;;;;;;13.45;6.22;;;10.70;1.00;;;;;;5091996;28;20031;-58
2023/04/26 10:36:12;;;;;;;14.73;6.55;;;10.40;99.90;;;;;;5092211;28;20367;-58
2023/04/26 10:38:40;;;;;;;16.13;6.93;;;10.30;99.90;;;;;;5083304;28;20442;-59
2023/04/26 10:41:34;;;;;;;11.50;7.72;;;10.30;1.00;;;;;;5071400;28;20029;-59
2023/04/26 10:44:35;;;;;;;10.27;6.65;;;10.10;99.90;;;;;;5089092;28;20024;-58
2023/04/26 10:47:00;;;;;;;13.30;7.53;;;10.40;99.90;;;;;;5091600;28;20116;-59
2023/04/26 10:49:26;;;;;;;16.95;8.32;;;9.90;1.00;;;;;;5092228;28;20070;-58
2023/04/26 10:52:11;;;;;;;14.32;7.40;;;9.80;1.00;;;;;;5091952;28;20027;-59
2023/04/26 10:54:57;;;;;;;20.70;13.68;;;9.80;99.90;;;;;;5091978;28;20102;-59
2023/04/26 10:57:50;;;;;;;15.10;7.32;;;9.80;99.90;;;;;;5074324;28;20089;-58
2023/04/26 11:00:24;;;;;;;12.00;7.22;;;9.60;99.90;;;;;;5086105;28;20044;-59
2023/04/26 11:03:04;;;;;;;9.77;6.47;;;9.70;29.00;;;;;;5091525;28;20032;-59
2023/04/26 11:05:54;;;;;;;14.50;7.47;;;10.20;92.00;;;;;;5091634;28;20394;-58
2023/04/26 11:08:27;;;;;;;17.63;8.27;;;10.30;1.00;;;;;;5091222;28;20050;-58
2023/04/26 11:11:04;;;;;;;12.13;7.50;;;10.30;99.90;;;;;;5090406;28;20016;-58
2023/04/26 11:13:35;;;;;;;12.55;5.78;;;10.30;99.90;;;;;;5076758;28;20077;-57
2023/04/26 11:16:03;;;;;;;9.63;5.63;;;10.40;1.00;;;;;;5071528;28;20023;-58
2023/04/26 11:18:30;;;;;;;10.38;7.05;;;10.40;49.30;;;;;;5071397;28;20029;-57
2023/04/26 11:20:57;;;;;;;9.45;6.38;;;10.20;45.00;;;;;;5071154;28;20028;-57
2023/04/26 11:23:24;;;;;;;10.90;5.75;;;10.30;1.00;;;;;;5071297;28;20025;-56
2023/04/26 11:25:50;;;;;;;13.70;8.38;;;10.00;1.00;;;;;;5071236;28;20074;-57
2023/04/26 11:28:18;;;;;;;8.30;5.32;;;10.00;99.90;;;;;;5070653;28;20028;-56
2023/04/26 11:30:43;;;;;;;8.25;4.88;;;10.30;99.90;;;;;;5070322;28;20025;-58
2023/04/26 11:33:17;;;;;;;22.15;15.65;;;10.50;99.90;;;;;;5071152;28;20027;-58
2023/04/26 11:35:43;;;;;;;;;;;10.80;99.90;;;;;;5071838;28;20073;-59
2023/04/26 11:38:08;;;;;;;6.47;4.07;;;11.20;99.90;;;;;;5071166;28;20322;-58
2023/04/26 11:40:36;;;;;;;8.93;5.63;;;11.60;99.90;;;;;;5071224;28;20036;-56
2023/04/26 11:43:03;;;;;;;11.18;5.72;;;11.50;99.90;;;;;;5071229;28;20079;-57
2023/04/26 11:45:31;;;;;;;10.30;6.82;;;11.00;99.90;;;;;;5071189;28;20507;-59
2023/04/26 11:47:57;;;;;;;7.75;5.45;;;10.70;1.00;;;;;;5070723;28;20050;-59
2023/04/26 11:50:25;;;;;;;26.85;5.75;;;10.60;99.90;;;;;;5069423;28;20021;-58
2023/04/26 11:52:54;;;;;;;10.75;5.63;;;10.30;1.00;;;;;;5071338;28;20158;-58
2023/04/26 11:55:24;;;;;;;9.40;5.93;;;10.30;99.90;;;;;;5075040;28;20020;-58
2023/04/26 11:57:50;;;;;;;12.57;4.78;;;10.20;99.90;;;;;;5075129;28;20155;-58
2023/04/26 12:00:16;;;;;;;9.80;4.18;;;10.30;1.00;;;;;;5074444;28;20123;-58
2023/04/26 12:02:46;;;;;;;7.80;5.70;;;10.60;1.00;;;;;;5075141;28;20454;-58
2023/04/26 12:05:30;;;;;;;8.50;3.85;;;10.60;99.90;;;;;;5074684;28;20024;-58
2023/04/26 12:07:57;;;;;;;6.88;3.92;;;11.20;1.00;;;;;;5074838;28;20024;-56
2023/04/26 12:10:30;;;;;;;7.65;3.95;;;11.90;99.90;;;;;;5074937;28;20035;-58
2023/04/26 12:12:58;;;;;;;4.60;3.25;;;12.90;1.00;;;;;;5074902;28;20062;-58
2023/04/26 12:15:32;;;;;;;11.52;3.65;;;13.80;99.90;;;;;;5074795;28;20029;-57
2023/04/26 12:18:06;;;;;;;5.25;3.40;;;14.70;1.00;;;;;;5074816;28;20037;-58
2023/04/26 12:20:32;;;;;;;;;;;14.90;1.00;;;;;;5074735;28;20024;-58
2023/04/26 12:22:59;;;;;;;4.20;2.85;;;15.20;99.90;;;;;;5073735;28;19970;-58
2023/04/26 12:25:26;;;;;;;8.93;3.92;;;15.70;99.90;;;;;;5074664;28;20024;-59
2023/04/26 12:27:52;;;;;;;9.60;3.70;;;15.80;99.90;;;;;;5073174;28;20064;-59
2023/04/26 12:30:18;;;;;;;4.95;2.90;;;15.30;99.90;;;;;;5074244;28;20022;-59
2023/04/26 12:32:43;;;;;;;8.00;3.72;;;14.90;99.90;;;;;;5074355;28;20032;-58
2023/04/26 12:35:09;;;;;;;7.38;3.75;;;14.20;99.90;;;;;;5074255;28;20025;-58
2023/04/26 12:37:34;;;;;;;4.72;2.95;;;14.20;99.90;;;;;;5073783;28;20044;-58
2023/04/26 12:40:00;;;;;;;9.20;3.30;;;14.00;99.90;;;;;;5074215;28;20192;-57
2023/04/26 12:42:26;;;;;;;5.57;2.97;;;13.50;99.90;;;;;;5074631;28;20028;-58
2023/04/26 12:44:52;;;;;;;5.78;3.20;;;13.10;99.90;;;;;;5074019;28;20655;-58
2023/04/26 12:47:17;;;;;;;3.75;2.58;;;13.10;99.90;;;;;;5074027;28;20023;-58
2023/04/26 12:49:43;;;;;;;4.25;2.78;;;13.20;99.90;;;;;;5074085;28;20020;-58